createdAt,value
2022-09-01T00:01:31.934Z,98432.34
2022-09-01T00:04:21.511Z,98294.34
2022-09-01T00:07:08.008Z,98396.88
2022-09-01T00:09:53.793Z,98469.09
2022-09-01T00:12:39.280Z,98394.63
2022-09-01T00:15:25.775Z,98314.66
2022-09-01T00:18:11.012Z,98445.94
2022-09-01T00:20:59.236Z,98300.75
2022-09-01T00:23:45.136Z,98190.28
2022-09-01T00:26:31.270Z,98378.44
2022-09-01T00:29:16.699Z,98299.63
2022-09-01T00:32:03.126Z,98444.53
2022-09-01T00:34:48.572Z,98386.81
2022-09-01T00:37:34.133Z,98306.47
2022-09-01T00:40:20.266Z,98475.50
2022-09-01T00:43:20.597Z,98372.88
2022-09-01T00:46:09.452Z,98369.91
2022-09-01T00:49:10.871Z,98440.03
2022-09-01T00:52:06.430Z,98428.94
2022-09-01T00:54:58.171Z,98404.66
2022-09-01T00:57:45.500Z,98402.91
2022-09-01T01:00:34.032Z,98262.50
2022-09-01T01:03:19.865Z,98403.63
2022-09-01T01:06:08.463Z,98437.28
2022-09-01T01:09:00.397Z,98378.31
2022-09-01T01:11:47.593Z,98310.31
2022-09-01T01:14:36.957Z,98435.94
2022-09-01T01:17:23.348Z,98385.75
2022-09-01T01:20:30.049Z,98421.16
2022-09-01T01:23:40.699Z,98447.91
2022-09-01T01:26:27.283Z,98444.06
2022-09-01T01:29:12.458Z,98273.28
2022-09-01T01:31:58.736Z,98311.03
2022-09-01T01:34:47.532Z,98267.28
2022-09-01T01:37:36.452Z,98392.06
2022-09-01T01:40:22.911Z,98406.34
2022-09-01T01:43:11.571Z,98298.00
2022-09-01T01:46:02.584Z,98434.34
2022-09-01T01:48:53.838Z,98418.78
2022-09-01T01:51:39.812Z,98444.28
2022-09-01T01:54:29.197Z,98257.25
2022-09-01T01:57:17.950Z,98424.81
2022-09-01T02:00:04.587Z,98282.66
2022-09-01T02:02:58.982Z,98331.78
2022-09-01T02:05:49.314Z,98252.13
2022-09-01T02:08:40.785Z,98419.09
2022-09-01T02:11:26.775Z,98407.97
2022-09-01T02:14:13.675Z,98248.00
2022-09-01T02:17:05.903Z,98253.88
2022-09-01T02:19:57.591Z,98398.75
2022-09-01T02:22:44.678Z,98416.56
2022-09-01T02:25:30.347Z,98392.44
2022-09-01T02:28:17.295Z,98409.53
2022-09-01T02:31:04.110Z,98254.31
2022-09-01T02:33:50.003Z,98387.06
2022-09-01T02:36:37.812Z,98390.75
2022-09-01T02:39:27.229Z,98436.38
2022-09-01T02:42:14.857Z,98426.69
2022-09-01T02:45:02.604Z,98250.09
2022-09-01T02:47:48.549Z,98280.50
2022-09-01T02:50:36.666Z,98428.50
2022-09-01T02:53:22.416Z,98257.41
2022-09-01T02:56:15.378Z,98420.16
2022-09-01T02:59:03.078Z,98285.94
2022-09-01T03:01:50.774Z,98439.66
2022-09-01T03:04:36.931Z,98237.81
2022-09-01T03:07:24.033Z,98351.13
2022-09-01T03:10:09.723Z,98291.03
2022-09-01T03:12:55.137Z,98409.94
2022-09-01T03:15:42.217Z,98411.97
2022-09-01T03:18:27.676Z,98417.53
2022-09-01T03:21:17.190Z,98375.25
2022-09-01T03:24:03.998Z,98253.47
2022-09-01T03:26:50.756Z,98362.22
2022-09-01T03:29:38.392Z,98416.22
2022-09-01T03:32:24.601Z,98248.91
2022-09-01T03:35:10.328Z,98247.91
2022-09-01T03:37:59.562Z,98397.34
2022-09-01T03:40:45.529Z,98405.84
2022-09-01T03:43:35.973Z,98414.47
2022-09-01T03:46:22.885Z,98273.03
2022-09-01T03:49:15.165Z,98410.38
2022-09-01T03:52:01.335Z,98274.22
2022-09-01T03:54:46.782Z,98385.38
2022-09-01T03:57:32.548Z,98410.38
2022-09-01T04:00:23.039Z,98434.56
2022-09-01T04:03:12.795Z,98409.09
2022-09-01T04:06:00.269Z,98314.28
2022-09-01T04:08:47.210Z,98401.03
2022-09-01T04:11:33.798Z,98410.25
2022-09-01T04:14:20.465Z,98436.34
2022-09-01T04:17:30.455Z,98237.06
2022-09-01T04:20:20.231Z,98443.06
2022-09-01T04:23:11.144Z,98427.53
2022-09-01T04:26:09.617Z,98350.59
2022-09-01T04:28:56.128Z,98420.81
2022-09-01T04:31:42.514Z,98223.75
2022-09-01T04:34:28.375Z,98313.84
2022-09-01T04:37:21.589Z,98393.25
2022-09-01T04:40:18.702Z,98449.63
2022-09-01T04:43:06.518Z,98427.78
2022-09-01T04:45:53.803Z,98405.06
2022-09-01T04:48:42.254Z,98428.88
2022-09-01T04:51:33.238Z,98423.59
2022-09-01T04:54:20.930Z,98366.59
2022-09-01T04:57:07.032Z,98272.44
2022-09-01T04:59:56.995Z,98380.66
2022-09-01T05:02:42.783Z,98432.88
2022-09-01T05:05:28.099Z,98447.06
2022-09-01T05:08:23.336Z,98407.88
2022-09-01T05:11:12.131Z,98303.75
2022-09-01T05:14:05.198Z,98431.25
2022-09-01T05:16:57.130Z,98403.63
2022-09-01T05:19:45.120Z,98259.28
2022-09-01T05:22:31.812Z,98428.72
2022-09-01T05:25:23.237Z,98427.41
2022-09-01T05:28:09.964Z,98344.94
2022-09-01T05:30:56.287Z,98454.03
2022-09-01T05:33:46.136Z,98426.72
2022-09-01T05:36:33.687Z,98420.09
2022-09-01T05:39:20.915Z,98420.13
2022-09-01T05:42:10.223Z,98428.16
2022-09-01T05:44:58.044Z,98246.28
2022-09-01T05:47:43.517Z,98263.25
2022-09-01T05:50:29.584Z,98459.56
2022-09-01T05:53:17.346Z,98278.03
2022-09-01T05:56:09.339Z,98291.94
2022-09-01T06:02:09.057Z,98389.88
2022-09-01T06:04:56.977Z,98434.13
2022-09-01T06:07:47.222Z,98423.41
2022-09-01T06:10:33.758Z,98418.31
2022-09-01T06:13:21.965Z,98310.69
2022-09-01T06:16:15.594Z,98462.75
2022-09-01T06:19:01.739Z,98437.94
2022-09-01T06:21:47.876Z,98430.13
2022-09-01T06:24:34.081Z,98409.56
2022-09-01T06:27:20.438Z,98391.81
2022-09-01T06:30:14.896Z,98412.38
2022-09-01T06:33:09.462Z,98287.81
2022-09-01T06:35:56.249Z,98216.56
2022-09-01T06:38:43.255Z,98416.22
2022-09-01T06:41:29.104Z,98380.88
2022-09-01T06:44:22.363Z,98414.31
2022-09-01T06:47:16.572Z,98384.69
2022-09-01T06:50:03.702Z,98381.06
2022-09-01T06:55:56.396Z,98336.50
2022-09-01T06:58:47.471Z,98382.94
2022-09-01T07:01:35.408Z,98314.31
2022-09-01T07:04:22.137Z,98420.69
2022-09-01T07:14:21.289Z,98418.38
2022-09-01T07:17:26.888Z,98422.19
2022-09-01T07:20:28.499Z,98264.94
2022-09-01T07:23:24.475Z,98366.47
2022-09-01T07:26:24.702Z,98373.66
2022-09-01T07:29:11.717Z,98349.16
2022-09-01T07:35:11.918Z,98414.41
2022-09-01T07:38:48.695Z,98307.84
2022-09-01T07:44:44.236Z,98415.56
2022-09-01T07:47:52.815Z,98425.91
2022-09-01T07:53:56.747Z,98264.13
2022-09-01T07:56:43.209Z,98284.41
2022-09-01T07:59:31.256Z,98249.97
2022-09-01T08:02:24.734Z,98368.69
2022-09-01T08:05:13.749Z,98304.31
2022-09-01T08:08:00.119Z,98379.63
2022-09-01T08:10:50.870Z,98411.78
2022-09-01T08:13:42.417Z,98137.53
2022-09-01T08:16:39.452Z,98285.72
2022-09-01T08:19:27.905Z,98376.72
2022-09-01T08:22:27.097Z,98352.13
2022-09-01T08:25:24.749Z,98273.00
2022-09-01T08:28:13.904Z,98280.44
2022-09-01T08:31:11.406Z,98428.00
2022-09-01T08:33:59.094Z,98432.44
2022-09-01T08:36:45.108Z,98293.47
2022-09-01T08:39:31.219Z,98426.72
2022-09-01T08:42:35.729Z,98428.00
2022-09-01T08:45:27.560Z,98418.16
2022-09-01T08:48:51.004Z,98423.97
2022-09-01T08:51:36.963Z,98279.31
2022-09-01T08:54:42.775Z,98322.41
2022-09-01T08:57:37.159Z,98313.06
2022-09-01T09:00:55.928Z,98418.63
2022-09-01T09:04:08.525Z,98424.22
2022-09-01T09:07:07.043Z,98429.44
2022-09-01T09:10:24.195Z,98429.16
2022-09-01T09:13:27.123Z,98396.50
2022-09-01T09:16:22.738Z,98399.81
2022-09-01T09:19:15.703Z,98395.81
2022-09-01T09:22:07.052Z,98404.34
2022-09-01T09:25:00.429Z,98408.16
2022-09-01T09:28:00.592Z,98281.72
2022-09-01T09:30:47.126Z,98330.13
2022-09-01T09:33:51.732Z,98274.28
2022-09-01T09:36:38.141Z,98411.78
2022-09-01T09:39:23.761Z,98311.31
2022-09-01T09:42:15.216Z,98265.44
2022-09-01T09:45:00.719Z,98404.59
2022-09-01T09:47:46.837Z,98370.38
2022-09-01T09:50:38.564Z,98274.13
2022-09-01T09:53:26.486Z,98356.59
2022-09-01T09:56:15.163Z,98405.59
2022-09-01T09:59:00.635Z,98410.34
2022-09-01T10:01:46.574Z,98400.56
2022-09-01T10:04:41.488Z,98337.63
2022-09-01T10:07:35.869Z,98402.09
2022-09-01T10:10:29.652Z,98394.94
2022-09-01T10:13:23.538Z,98230.06
2022-09-01T10:16:32.036Z,98398.16
2022-09-01T10:19:17.856Z,98272.22
2022-09-01T10:22:03.537Z,98282.19
2022-09-01T10:24:50.509Z,98349.41
2022-09-01T10:27:40.985Z,98392.56
2022-09-01T10:30:28.211Z,98266.19
2022-09-01T10:33:20.830Z,98277.53
2022-09-01T10:36:08.237Z,98378.91
2022-09-01T10:38:58.926Z,98355.75
2022-09-01T10:42:07.699Z,98380.81
2022-09-01T10:44:58.739Z,98224.13
2022-09-01T10:47:45.050Z,98391.88
2022-09-01T10:50:36.040Z,98351.34
2022-09-01T10:53:34.053Z,98388.00
2022-09-01T10:56:43.633Z,98375.53
2022-09-01T10:59:33.661Z,98379.66
2022-09-01T11:02:26.309Z,98385.53
2022-09-01T11:05:15.342Z,98376.97
2022-09-01T11:08:23.193Z,98376.13
2022-09-01T11:11:31.192Z,98391.03
2022-09-01T11:14:20.918Z,98359.75
2022-09-01T11:17:12.619Z,98379.34
2022-09-01T11:20:10.750Z,98254.19
2022-09-01T11:23:21.126Z,98250.50
2022-09-01T11:26:32.732Z,98381.19
2022-09-01T11:30:06.946Z,98367.72
2022-09-01T11:33:03.952Z,98363.28
2022-09-01T11:36:05.585Z,98370.44
2022-09-01T11:39:04.295Z,98343.44
2022-09-01T11:41:59.652Z,98308.84
2022-09-01T11:44:58.091Z,98254.59
2022-09-01T11:47:55.208Z,98374.66
2022-09-01T11:50:44.460Z,98367.78
2022-09-01T11:53:30.661Z,98384.41
2022-09-01T11:56:30.490Z,98368.25
2022-09-01T11:59:37.930Z,98372.22
2022-09-01T12:02:36.661Z,98386.31
2022-09-01T12:05:37.128Z,98369.97
2022-09-01T12:08:24.289Z,98369.31
2022-09-01T12:11:20.619Z,98370.78
2022-09-01T12:14:11.683Z,98234.72
2022-09-01T12:17:05.099Z,98361.31
2022-09-01T12:19:51.597Z,98361.63
2022-09-01T12:22:37.339Z,98309.81
2022-09-01T12:25:35.299Z,98363.06
2022-09-01T12:28:23.917Z,98359.78
2022-09-01T12:31:17.246Z,98366.25
2022-09-01T12:34:05.159Z,98275.81
2022-09-01T12:37:10.314Z,98316.66
2022-09-01T12:39:58.785Z,98345.53
2022-09-01T12:42:51.077Z,98349.66
2022-09-01T12:45:42.992Z,98199.06
2022-09-01T12:48:31.482Z,98354.34
2022-09-01T12:51:31.408Z,98349.78
2022-09-01T12:54:26.160Z,98336.56
2022-09-01T12:57:29.114Z,98264.72
2022-09-01T13:00:21.836Z,98342.84
2022-09-01T13:03:21.704Z,98336.19
2022-09-01T13:06:08.024Z,98340.81
2022-09-01T13:08:53.688Z,98294.53
2022-09-01T13:14:45.296Z,98329.97
2022-09-01T13:17:31.364Z,98328.34
2022-09-01T13:20:18.529Z,98215.00
2022-09-01T13:23:04.522Z,98188.66
2022-09-01T13:25:50.310Z,98332.72
2022-09-01T13:28:38.857Z,98302.31
2022-09-01T13:31:30.708Z,98338.41
2022-09-01T13:34:21.996Z,98325.63
2022-09-01T13:37:10.009Z,98322.72
2022-09-01T13:39:57.041Z,98262.13
2022-09-01T13:42:44.186Z,98315.22
2022-09-01T13:45:29.668Z,98291.22
2022-09-01T13:48:16.846Z,98271.03
2022-09-01T13:51:18.979Z,98323.25
2022-09-01T13:54:04.679Z,98254.78
2022-09-01T13:56:52.627Z,98273.13
2022-09-01T13:59:42.374Z,98316.78
2022-09-01T14:02:28.269Z,98293.66
2022-09-01T14:05:13.820Z,98322.56
2022-09-01T14:08:01.483Z,98325.59
2022-09-01T14:10:54.901Z,98296.69
2022-09-01T14:13:40.768Z,98338.94
2022-09-01T14:16:26.562Z,98327.06
2022-09-01T14:19:13.180Z,98320.13
2022-09-01T14:21:59.164Z,98322.28
2022-09-01T14:24:45.264Z,98319.22
2022-09-01T14:27:33.446Z,98325.59
2022-09-01T14:30:31.025Z,98322.56
2022-09-01T14:33:18.904Z,98326.63
2022-09-01T14:36:04.896Z,98200.69
2022-09-01T14:38:51.622Z,98332.84
2022-09-01T14:41:38.210Z,98333.38
2022-09-01T14:44:27.687Z,98323.03
2022-09-01T14:47:19.459Z,98332.84
2022-09-01T14:53:01.219Z,98309.13
2022-09-01T14:55:47.483Z,98195.97
2022-09-01T14:58:33.259Z,98300.53
2022-09-01T15:01:33.555Z,98309.22
2022-09-01T15:04:20.790Z,98338.84
2022-09-01T15:07:06.678Z,98199.09
2022-09-01T15:09:52.649Z,98331.53
2022-09-01T15:12:39.829Z,98196.78
2022-09-01T15:15:27.140Z,98274.03
2022-09-01T15:18:13.247Z,98352.22
2022-09-01T15:20:59.469Z,98319.16
2022-09-01T15:23:45.070Z,98349.91
2022-09-01T15:26:31.024Z,98351.75
2022-09-01T15:29:16.483Z,98355.06
2022-09-01T15:32:02.123Z,98348.63
2022-09-01T15:34:47.953Z,98376.41
2022-09-01T15:37:34.714Z,98335.47
2022-09-01T15:40:21.346Z,98360.63
2022-09-01T15:43:06.966Z,98366.69
2022-09-01T15:45:52.291Z,98366.50
2022-09-01T15:48:38.148Z,98239.78
2022-09-01T15:51:23.370Z,98367.09
2022-09-01T15:54:15.724Z,98220.31
2022-09-01T15:57:01.559Z,98345.19
2022-09-01T15:59:47.030Z,98222.88
2022-09-01T16:02:32.697Z,98368.38
2022-09-01T16:05:18.518Z,98332.00
2022-09-01T16:08:09.784Z,98394.19
2022-09-01T16:10:56.023Z,98223.91
2022-09-01T16:13:43.290Z,98302.50
2022-09-01T16:16:41.190Z,98380.69
2022-09-01T16:19:33.825Z,98364.66
2022-09-01T16:22:33.161Z,98365.47
2022-09-01T16:25:27.745Z,98382.63
2022-09-01T16:28:25.481Z,98363.31
2022-09-01T16:31:13.985Z,98232.00
2022-09-01T16:34:05.191Z,98240.28
2022-09-01T16:37:10.622Z,98299.31
2022-09-01T16:40:09.907Z,98286.28
2022-09-01T16:43:19.672Z,98293.03
2022-09-01T16:46:23.734Z,98387.06
2022-09-01T16:49:33.168Z,98384.81
2022-09-01T16:52:29.557Z,98244.38
2022-09-01T16:55:28.138Z,98356.69
2022-09-01T16:58:32.070Z,98394.56
2022-09-01T17:01:42.312Z,98392.94
2022-09-01T17:04:58.731Z,98406.66
2022-09-01T17:07:50.665Z,98408.41
2022-09-01T17:10:41.788Z,98421.31
2022-09-01T17:13:55.858Z,98263.84
2022-09-01T17:16:44.467Z,98263.38
2022-09-01T17:19:34.279Z,98445.31
2022-09-01T17:22:21.682Z,98420.00
2022-09-01T17:25:13.693Z,98286.16
2022-09-01T17:28:08.564Z,98434.41
2022-09-01T17:31:00.678Z,98445.00
2022-09-01T17:33:55.188Z,98436.50
2022-09-01T17:36:55.833Z,98407.44
2022-09-01T17:40:18.210Z,98440.28
2022-09-01T17:43:18.422Z,98427.22
2022-09-01T17:46:27.259Z,98448.53
2022-09-01T17:49:20.716Z,98419.34
2022-09-01T17:52:09.765Z,98421.09
2022-09-01T17:55:00.622Z,98448.75
2022-09-01T17:58:11.776Z,98450.88
2022-09-01T18:01:10.104Z,98397.34
2022-09-01T18:04:11.506Z,98458.72
2022-09-01T18:07:06.587Z,98466.25
2022-09-01T18:09:55.938Z,98345.19
2022-09-01T18:12:44.317Z,98476.94
2022-09-01T18:15:59.972Z,98315.97
2022-09-01T18:18:49.315Z,98502.53
2022-09-01T18:21:38.188Z,98446.84
2022-09-01T18:24:47.642Z,98485.88
2022-09-01T18:27:35.984Z,98496.28
2022-09-01T18:30:42.835Z,98455.94
2022-09-01T18:34:00.335Z,98508.31
2022-09-01T18:37:01.587Z,98489.72
2022-09-01T18:39:59.825Z,98470.78
2022-09-01T18:43:01.743Z,98500.84
2022-09-01T18:46:16.728Z,98531.88
2022-09-01T18:49:15.610Z,98532.09
2022-09-01T18:52:09.299Z,98327.53
2022-09-01T18:55:13.468Z,98333.69
2022-09-01T18:58:06.139Z,98515.22
2022-09-01T19:01:35.093Z,98517.41
2022-09-01T19:04:31.040Z,98384.69
2022-09-01T19:07:26.517Z,98521.75
2022-09-01T19:10:27.595Z,98385.34
2022-09-01T19:13:30.836Z,98517.84
2022-09-01T19:16:33.434Z,98485.38
2022-09-01T19:19:19.184Z,98533.69
2022-09-01T19:22:05.129Z,98532.03
2022-09-01T19:25:19.778Z,98564.81
2022-09-01T19:28:31.931Z,98536.25
2022-09-01T19:31:23.106Z,98505.28
2022-09-01T19:34:13.049Z,98480.19
2022-09-01T19:37:01.869Z,98540.38
2022-09-01T19:39:53.382Z,98523.22
2022-09-01T19:42:49.846Z,98383.91
2022-09-01T19:45:56.075Z,98537.47
2022-09-01T19:48:50.080Z,98419.75
2022-09-01T19:51:51.197Z,98438.06
2022-09-01T19:55:01.592Z,98569.03
2022-09-01T19:58:11.492Z,98548.34
2022-09-01T20:01:03.483Z,98439.81
2022-09-01T20:03:53.667Z,98509.34
2022-09-01T20:06:43.931Z,98564.03
2022-09-01T20:09:49.784Z,98570.06
2022-09-01T20:12:48.361Z,98438.63
2022-09-01T20:15:51.100Z,98406.47
2022-09-01T20:18:44.605Z,98584.63
2022-09-01T20:21:31.346Z,98399.00
2022-09-01T20:24:17.061Z,98574.69
2022-09-01T20:27:04.549Z,98572.75
2022-09-01T20:29:59.297Z,98591.56
2022-09-01T20:33:00.833Z,98574.19
2022-09-01T20:35:59.502Z,98415.78
2022-09-01T20:39:19.553Z,98512.66
2022-09-01T20:42:12.732Z,98576.59
2022-09-01T20:45:15.234Z,98587.13
2022-09-01T20:48:07.128Z,98541.31
2022-09-01T20:51:17.566Z,98435.13
2022-09-01T20:54:30.370Z,98587.50
2022-09-01T20:57:34.479Z,98419.63
2022-09-01T21:00:25.953Z,98549.47
2022-09-01T21:03:36.240Z,98588.28
2022-09-01T21:06:26.048Z,98580.97
2022-09-01T21:09:11.535Z,98606.94
2022-09-01T21:12:29.428Z,98605.34
2022-09-01T21:15:35.222Z,98604.47
2022-09-01T21:18:32.826Z,98587.44
2022-09-01T21:21:32.467Z,98596.22
2022-09-01T21:24:18.577Z,98566.59
2022-09-01T21:27:11.268Z,98550.63
2022-09-01T21:30:09.873Z,98412.91
2022-09-01T21:32:57.206Z,98412.19
2022-09-01T21:35:42.682Z,98406.88
2022-09-01T21:38:29.471Z,98419.63
2022-09-01T21:41:15.287Z,98560.13
2022-09-01T21:44:00.834Z,98557.25
2022-09-01T21:46:46.271Z,98558.34
2022-09-01T21:49:33.244Z,98465.56
2022-09-01T21:52:19.068Z,98610.47
2022-09-01T21:55:06.113Z,98399.09
2022-09-01T21:57:51.989Z,98426.16
2022-09-01T22:00:39.483Z,98595.03
2022-09-01T22:03:25.191Z,98608.00
2022-09-01T22:06:12.221Z,98592.59
2022-09-01T22:09:02.466Z,98434.56
2022-09-01T22:11:53.043Z,98595.75
2022-09-01T22:14:38.750Z,98501.09
2022-09-01T22:17:24.458Z,98595.94
2022-09-01T22:20:11.321Z,98507.13
2022-09-01T22:23:01.785Z,98586.88
2022-09-01T22:25:47.753Z,98585.44
2022-09-01T22:28:33.425Z,98464.88
2022-09-01T22:31:21.326Z,98603.84
2022-09-01T22:34:07.531Z,98550.00
2022-09-01T22:36:53.343Z,98593.94
2022-09-01T22:39:38.804Z,98605.91
2022-09-01T22:42:24.928Z,98598.88
2022-09-01T22:45:13.078Z,98467.19
2022-09-01T22:47:58.389Z,98571.53
2022-09-01T22:50:45.120Z,98599.59
2022-09-01T22:53:31.077Z,98601.38
2022-09-01T22:56:23.307Z,98438.13
2022-09-01T22:59:13.206Z,98474.41
2022-09-01T23:02:01.145Z,98442.97
2022-09-01T23:04:47.170Z,98569.06
2022-09-01T23:07:35.116Z,98463.72
2022-09-01T23:10:21.226Z,98535.09
2022-09-01T23:13:06.890Z,98581.56
2022-09-01T23:15:52.596Z,98577.16
2022-09-01T23:18:40.646Z,98621.53
2022-09-01T23:21:29.436Z,98611.72
2022-09-01T23:24:16.283Z,98582.56
2022-09-01T23:27:05.437Z,98609.22
2022-09-01T23:29:51.325Z,98623.66
2022-09-01T23:32:37.333Z,98621.28
2022-09-01T23:35:22.896Z,98576.59
2022-09-01T23:38:08.608Z,98430.00
2022-09-01T23:40:56.175Z,98630.13
2022-09-01T23:43:41.695Z,98515.34
2022-09-01T23:46:30.788Z,98552.81
2022-09-01T23:49:18.137Z,98618.69
2022-09-01T23:52:03.810Z,98487.41
2022-09-01T23:54:49.403Z,98616.34
2022-09-01T23:57:35.250Z,98612.97
